createdAt,value
2023-03-29T00:00:14.163Z,12.07
2023-03-29T00:02:48.611Z,6.85
2023-03-29T00:05:18.552Z,8.93
2023-03-29T00:07:46.966Z,13.63
2023-03-29T00:10:15.806Z,8.00
2023-03-29T00:12:43.959Z,12.50
2023-03-29T00:15:12.785Z,21.85
2023-03-29T00:17:41.052Z,17.08
2023-03-29T00:20:12.329Z,16.55
2023-03-29T00:22:42.071Z,19.70
2023-03-29T00:25:11.128Z,22.90
2023-03-29T00:27:41.895Z,12.32
2023-03-29T00:30:11.106Z,12.40
2023-03-29T00:32:41.725Z,13.45
2023-03-29T00:35:11.498Z,12.80
2023-03-29T00:37:39.709Z,8.93
2023-03-29T00:40:11.059Z,11.18
2023-03-29T00:42:39.416Z,9.63
2023-03-29T00:45:17.484Z,8.82
2023-03-29T00:47:48.806Z,6.90
2023-03-29T00:50:25.900Z,10.85
2023-03-29T00:53:00.879Z,9.77
2023-03-29T00:55:32.972Z,6.72
2023-03-29T00:58:04.437Z,6.13
2023-03-29T01:00:36.569Z,9.35
2023-03-29T01:03:13.884Z,17.00
2023-03-29T01:05:46.785Z,10.75
2023-03-29T01:08:20.038Z,20.40
2023-03-29T01:10:52.456Z,9.98
2023-03-29T01:13:28.682Z,19.58
2023-03-29T01:15:59.220Z,33.38
2023-03-29T01:18:27.484Z,27.70
2023-03-29T01:21:16.854Z,19.17
2023-03-29T01:24:07.653Z,9.63
2023-03-29T01:26:48.537Z,11.68
2023-03-29T01:29:25.602Z,10.35
2023-03-29T01:31:59.235Z,7.75
2023-03-29T01:34:35.378Z,6.13
2023-03-29T01:37:08.592Z,11.60
2023-03-29T01:39:36.960Z,21.98
2023-03-29T01:42:16.167Z,14.48
2023-03-29T01:44:53.813Z,14.00
2023-03-29T01:47:28.616Z,19.17
2023-03-29T01:50:06.448Z,15.95
2023-03-29T01:52:39.579Z,9.82
2023-03-29T01:55:14.381Z,12.00
2023-03-29T01:57:45.626Z,19.30
2023-03-29T02:00:19.063Z,19.02
2023-03-29T02:02:48.649Z,12.57
2023-03-29T02:05:19.673Z,10.55
2023-03-29T02:07:50.455Z,12.35
2023-03-29T02:10:19.972Z,9.02
2023-03-29T02:12:48.317Z,10.68
2023-03-29T02:15:20.792Z,8.98
2023-03-29T02:17:50.854Z,7.45
2023-03-29T02:20:22.590Z,7.03
2023-03-29T02:22:59.615Z,10.40
2023-03-29T02:25:27.996Z,12.48
2023-03-29T02:27:57.240Z,19.45
2023-03-29T02:30:31.307Z,9.70
2023-03-29T02:33:06.772Z,13.15
2023-03-29T02:35:42.252Z,7.90
2023-03-29T02:38:11.782Z,8.88
2023-03-29T02:40:43.185Z,10.60
2023-03-29T02:43:14.189Z,8.77
2023-03-29T02:45:45.344Z,9.20
2023-03-29T02:48:19.139Z,11.70
2023-03-29T02:50:50.339Z,7.50
2023-03-29T02:53:22.729Z,8.38
2023-03-29T02:55:52.865Z,7.15
2023-03-29T02:58:28.768Z,8.50
2023-03-29T03:01:01.291Z,16.17
2023-03-29T03:03:30.174Z,20.95
2023-03-29T03:06:02.032Z,12.35
2023-03-29T03:08:32.166Z,19.40
2023-03-29T03:11:02.351Z,17.13
2023-03-29T03:13:30.803Z,25.00
2023-03-29T03:16:01.188Z,26.40
2023-03-29T03:18:29.462Z,23.95
2023-03-29T03:20:59.165Z,24.27
2023-03-29T03:23:27.564Z,93.97
2023-03-29T03:25:56.386Z,211.07
2023-03-29T03:28:27.242Z,105.90
2023-03-29T03:30:56.104Z,101.73
2023-03-29T03:33:26.953Z,35.88
2023-03-29T03:36:15.656Z,29.65
2023-03-29T03:38:47.684Z,16.13
2023-03-29T03:41:19.788Z,20.20
2023-03-29T03:43:49.458Z,30.23
2023-03-29T03:46:19.140Z,20.63
2023-03-29T03:48:49.362Z,15.45
2023-03-29T03:51:22.918Z,14.65
2023-03-29T03:53:52.309Z,16.30
2023-03-29T03:56:35.346Z,13.45
2023-03-29T03:59:15.553Z,29.42
2023-03-29T04:02:16.572Z,34.90
2023-03-29T04:04:47.677Z,26.05
2023-03-29T04:07:19.650Z,25.98
2023-03-29T04:10:08.953Z,27.27
2023-03-29T04:12:49.303Z,24.77
2023-03-29T04:15:20.210Z,51.27
2023-03-29T04:17:57.462Z,73.68
2023-03-29T04:20:31.784Z,49.37
2023-03-29T04:23:01.589Z,36.88
2023-03-29T04:25:30.773Z,21.77
2023-03-29T04:28:36.215Z,16.63
2023-03-29T04:31:12.147Z,23.83
2023-03-29T04:33:51.558Z,26.40
2023-03-29T04:36:21.393Z,28.70
2023-03-29T04:38:52.227Z,37.37
2023-03-29T04:41:21.300Z,26.37
2023-03-29T04:44:00.504Z,13.48
2023-03-29T04:46:33.297Z,24.05
2023-03-29T04:49:11.356Z,30.35
2023-03-29T04:51:43.968Z,36.60
2023-03-29T04:54:15.676Z,78.95
2023-03-29T04:57:07.047Z,38.22
2023-03-29T04:59:41.595Z,36.67
2023-03-29T05:02:33.125Z,77.75
2023-03-29T05:05:01.443Z,89.25
2023-03-29T05:07:31.580Z,89.25
2023-03-29T05:09:59.833Z,54.25
2023-03-29T05:12:28.509Z,51.47
2023-03-29T05:14:58.835Z,52.70
2023-03-29T05:17:28.593Z,24.73
2023-03-29T05:20:09.128Z,15.00
2023-03-29T05:22:40.192Z,14.02
2023-03-29T05:25:13.291Z,10.77
2023-03-29T05:27:45.876Z,12.77
2023-03-29T05:30:15.766Z,12.02
2023-03-29T05:33:13.089Z,14.13
2023-03-29T05:35:41.397Z,7.50
2023-03-29T05:38:11.622Z,4.88
2023-03-29T05:40:41.437Z,15.25
2023-03-29T05:43:28.534Z,21.13
2023-03-29T05:45:57.630Z,14.23
2023-03-29T05:48:27.414Z,14.25
2023-03-29T05:50:57.830Z,27.88
2023-03-29T05:53:28.436Z,6.13
2023-03-29T05:55:57.282Z,14.93
2023-03-29T05:58:28.469Z,17.88
2023-03-29T06:00:57.335Z,16.75
2023-03-29T06:03:48.130Z,14.35
2023-03-29T06:06:18.711Z,10.43
2023-03-29T06:08:48.968Z,8.13
2023-03-29T06:11:24.315Z,12.35
2023-03-29T06:14:04.561Z,12.98
2023-03-29T06:16:33.658Z,19.38
2023-03-29T06:19:02.746Z,12.85
2023-03-29T06:21:32.932Z,13.27
2023-03-29T06:24:04.099Z,7.80
2023-03-29T06:26:38.566Z,11.70
2023-03-29T06:29:06.771Z,4.55
2023-03-29T06:31:36.113Z,5.20
2023-03-29T06:34:05.934Z,11.35
2023-03-29T06:36:54.846Z,11.20
2023-03-29T06:39:26.400Z,6.25
2023-03-29T06:42:20.643Z,9.45
2023-03-29T06:45:24.033Z,10.73
2023-03-29T06:47:54.780Z,5.78
2023-03-29T06:50:24.250Z,10.73
2023-03-29T06:53:04.190Z,7.00
2023-03-29T06:55:34.411Z,10.65
2023-03-29T06:58:16.382Z,13.18
2023-03-29T07:00:45.917Z,5.55
2023-03-29T07:03:24.592Z,9.15
2023-03-29T07:06:02.906Z,8.93
2023-03-29T07:08:32.330Z,4.88
2023-03-29T07:11:05.756Z,3.50
2023-03-29T07:13:55.438Z,9.82
2023-03-29T07:16:24.199Z,9.75
2023-03-29T07:19:01.382Z,16.15
2023-03-29T07:21:53.279Z,10.05
2023-03-29T07:24:24.544Z,12.93
2023-03-29T07:27:03.439Z,12.35
2023-03-29T07:29:33.333Z,4.47
2023-03-29T07:32:01.552Z,6.38
2023-03-29T07:34:44.543Z,15.25
2023-03-29T07:37:25.707Z,13.27
2023-03-29T07:39:54.931Z,10.63
2023-03-29T07:42:47.749Z,3.78
2023-03-29T07:45:26.637Z,2.63
2023-03-29T07:48:10.662Z,4.22
2023-03-29T07:51:09.050Z,8.27
2023-03-29T07:53:45.265Z,6.60
2023-03-29T07:56:31.810Z,4.65
2023-03-29T07:59:21.758Z,9.77
2023-03-29T08:01:59.294Z,3.15
2023-03-29T08:04:32.847Z,4.82
2023-03-29T08:07:24.835Z,7.50
2023-03-29T08:10:13.562Z,7.82
2023-03-29T08:13:09.099Z,7.82
2023-03-29T08:15:51.974Z,2.35
2023-03-29T08:18:37.364Z,8.48
2023-03-29T08:21:07.253Z,1.52
2023-03-29T08:23:36.076Z,2.10
2023-03-29T08:26:15.927Z,4.85
2023-03-29T08:28:44.885Z,1.90
2023-03-29T08:31:15.024Z,3.85
2023-03-29T08:33:46.371Z,3.85
2023-03-29T08:36:34.854Z,3.92
2023-03-29T08:39:11.417Z,4.20
2023-03-29T08:41:53.721Z,11.98
2023-03-29T08:44:37.921Z,3.28
2023-03-29T08:47:21.955Z,6.53
2023-03-29T08:49:56.748Z,4.53
2023-03-29T08:52:37.176Z,3.05
2023-03-29T08:55:25.827Z,7.13
2023-03-29T08:58:25.462Z,6.40
2023-03-29T09:00:56.831Z,3.17
2023-03-29T09:03:31.104Z,5.35
2023-03-29T09:06:07.612Z,6.38
2023-03-29T09:08:46.201Z,4.68
2023-03-29T09:11:31.303Z,6.72
2023-03-29T09:14:15.671Z,10.07
2023-03-29T09:16:51.156Z,5.15
2023-03-29T09:19:32.891Z,7.93
2023-03-29T09:22:14.004Z,7.00
2023-03-29T09:24:54.633Z,8.55
2023-03-29T09:27:28.180Z,6.90
2023-03-29T09:30:17.175Z,6.35
2023-03-29T09:33:01.894Z,5.07
2023-03-29T09:35:48.327Z,5.30
2023-03-29T09:38:19.488Z,6.70
2023-03-29T09:40:51.301Z,5.45
2023-03-29T09:43:30.523Z,7.20
2023-03-29T09:46:04.141Z,6.07
2023-03-29T09:48:37.764Z,6.55
2023-03-29T09:51:09.830Z,9.55
2023-03-29T09:53:40.436Z,4.85
2023-03-29T09:56:19.036Z,6.97
2023-03-29T09:58:53.017Z,5.13
2023-03-29T10:01:21.414Z,4.38
2023-03-29T10:03:53.431Z,2.25
2023-03-29T10:06:26.848Z,4.28
2023-03-29T10:09:01.022Z,10.73
2023-03-29T10:11:38.314Z,5.78
2023-03-29T10:14:13.286Z,9.30
2023-03-29T10:16:45.982Z,5.82
2023-03-29T10:19:27.501Z,1.35
2023-03-29T10:22:00.127Z,5.13
2023-03-29T10:24:29.138Z,5.15
2023-03-29T10:27:01.182Z,10.35
2023-03-29T10:29:37.395Z,4.13
2023-03-29T10:32:16.237Z,1.75
2023-03-29T10:34:46.802Z,1.60
2023-03-29T10:37:19.298Z,3.17
2023-03-29T10:39:48.839Z,2.58
2023-03-29T10:42:20.272Z,4.72
2023-03-29T10:44:54.559Z,2.22
2023-03-29T10:47:23.458Z,1.80
2023-03-29T10:49:56.366Z,3.20
2023-03-29T10:52:27.201Z,3.92
2023-03-29T10:54:59.181Z,4.50
2023-03-29T10:57:37.188Z,3.55
2023-03-29T11:00:11.089Z,2.67
2023-03-29T11:03:14.261Z,3.08
2023-03-29T11:05:48.742Z,1.33
2023-03-29T11:08:36.033Z,2.75
2023-03-29T11:11:16.126Z,1.35
2023-03-29T11:13:51.389Z,3.63
2023-03-29T11:16:28.146Z,3.50
2023-03-29T11:19:13.525Z,2.78
2023-03-29T11:21:49.915Z,1.73
2023-03-29T11:24:47.624Z,1.08
2023-03-29T11:27:27.364Z,6.25
2023-03-29T11:30:08.657Z,4.80
2023-03-29T11:32:47.041Z,4.35
2023-03-29T11:35:38.964Z,2.28
2023-03-29T11:38:13.733Z,2.60
2023-03-29T11:40:54.667Z,3.10
2023-03-29T11:43:28.881Z,2.05
2023-03-29T11:46:00.880Z,1.42
2023-03-29T11:48:36.922Z,2.15
2023-03-29T11:51:13.121Z,2.20
2023-03-29T11:53:51.684Z,3.28
2023-03-29T11:56:29.285Z,2.05
2023-03-29T11:59:04.675Z,2.08
2023-03-29T12:01:36.593Z,4.45
2023-03-29T12:04:08.873Z,3.17
2023-03-29T12:06:43.130Z,1.45
2023-03-29T12:09:23.320Z,1.95
2023-03-29T12:11:58.765Z,2.65
2023-03-29T12:14:31.386Z,2.65
2023-03-29T12:17:03.248Z,0.68
2023-03-29T12:19:33.126Z,1.27
2023-03-29T12:22:02.185Z,2.42
2023-03-29T12:24:34.408Z,2.47
2023-03-29T12:27:20.230Z,2.10
2023-03-29T12:30:05.600Z,1.38
2023-03-29T12:32:45.927Z,1.38
2023-03-29T12:35:42.139Z,2.22
2023-03-29T12:38:31.218Z,1.63
2023-03-29T12:41:20.432Z,2.47
2023-03-29T12:44:16.114Z,2.38
2023-03-29T12:46:58.136Z,2.95
2023-03-29T12:49:31.378Z,1.10
2023-03-29T12:52:01.693Z,1.80
2023-03-29T12:54:33.025Z,2.75
2023-03-29T12:57:03.404Z,1.38
2023-03-29T12:59:41.227Z,2.50
2023-03-29T13:02:36.994Z,4.38
2023-03-29T13:05:26.454Z,1.40
2023-03-29T13:07:55.948Z,1.38
2023-03-29T13:10:42.243Z,2.30
2023-03-29T13:13:16.111Z,2.95
2023-03-29T13:15:46.796Z,2.10
2023-03-29T13:18:33.969Z,3.75
2023-03-29T13:21:10.711Z,2.00
2023-03-29T13:23:48.515Z,2.75
2023-03-29T13:26:39.790Z,1.00
2023-03-29T13:29:30.751Z,3.10
2023-03-29T13:32:07.192Z,1.60
2023-03-29T13:34:42.108Z,1.00
2023-03-29T13:37:23.917Z,3.83
2023-03-29T13:39:53.935Z,3.72
2023-03-29T13:42:25.946Z,1.23
2023-03-29T13:44:54.241Z,3.05
2023-03-29T13:47:48.906Z,4.20
2023-03-29T13:50:36.380Z,4.45
2023-03-29T13:53:11.703Z,2.75
2023-03-29T13:55:48.835Z,3.35
2023-03-29T13:58:28.379Z,5.03
2023-03-29T14:01:02.346Z,3.35
2023-03-29T14:03:44.714Z,2.45
2023-03-29T14:06:16.165Z,5.20
2023-03-29T14:08:45.724Z,2.78
2023-03-29T14:11:23.007Z,3.88
2023-03-29T14:13:54.474Z,4.00
2023-03-29T14:16:24.306Z,2.70
2023-03-29T14:18:54.269Z,2.60
2023-03-29T14:21:25.428Z,1.38
2023-03-29T14:23:58.468Z,7.88
2023-03-29T14:26:31.909Z,4.05
2023-03-29T14:29:01.713Z,4.57
2023-03-29T14:31:33.377Z,4.68
2023-03-29T14:34:05.062Z,1.50
2023-03-29T14:36:34.384Z,2.83
2023-03-29T14:39:05.845Z,4.10
2023-03-29T14:41:37.193Z,2.97
2023-03-29T14:44:07.646Z,1.67
2023-03-29T14:46:37.212Z,4.93
2023-03-29T14:49:07.350Z,4.50
2023-03-29T14:51:36.949Z,1.60
2023-03-29T14:54:06.505Z,5.18
2023-03-29T14:56:35.026Z,3.92
2023-03-29T14:59:05.343Z,2.50
2023-03-29T15:01:33.709Z,4.20
2023-03-29T15:04:06.140Z,2.67
2023-03-29T15:06:39.900Z,3.38
2023-03-29T15:09:14.022Z,3.00
2023-03-29T15:11:42.400Z,3.28
2023-03-29T15:14:17.288Z,4.10
2023-03-29T15:16:48.232Z,2.42
2023-03-29T15:19:19.365Z,2.05
2023-03-29T15:21:50.536Z,2.30
2023-03-29T15:24:24.413Z,3.47
2023-03-29T15:27:04.214Z,4.22
2023-03-29T15:29:38.566Z,3.53
2023-03-29T15:32:07.229Z,3.67
2023-03-29T15:34:35.541Z,2.78
2023-03-29T15:37:05.761Z,2.17
2023-03-29T15:39:34.903Z,5.05
2023-03-29T15:42:03.144Z,4.03
2023-03-29T15:44:36.242Z,3.13
2023-03-29T15:47:04.949Z,2.50
2023-03-29T15:49:33.397Z,4.35
2023-03-29T15:52:01.578Z,2.72
2023-03-29T15:54:33.288Z,8.25
2023-03-29T15:57:05.315Z,3.42
2023-03-29T15:59:33.997Z,3.17
2023-03-29T16:02:02.494Z,3.80
2023-03-29T16:04:30.815Z,3.10
2023-03-29T16:06:59.050Z,4.47
2023-03-29T16:09:27.370Z,5.40
2023-03-29T16:11:57.005Z,3.17
2023-03-29T16:14:27.659Z,3.67
2023-03-29T16:16:58.829Z,4.90
2023-03-29T16:19:28.164Z,3.90
2023-03-29T16:21:56.958Z,3.75
2023-03-29T16:24:27.437Z,3.55
2023-03-29T16:26:58.450Z,2.95
2023-03-29T16:29:27.020Z,5.45
2023-03-29T16:31:55.773Z,3.75
2023-03-29T16:34:24.844Z,6.40
2023-03-29T16:36:53.924Z,9.77
2023-03-29T16:39:22.146Z,4.20
2023-03-29T16:41:50.826Z,3.28
2023-03-29T16:44:27.538Z,6.38
2023-03-29T16:46:57.790Z,4.32
2023-03-29T16:49:26.048Z,4.15
2023-03-29T16:51:54.263Z,3.70
2023-03-29T16:54:25.568Z,3.95
2023-03-29T16:56:53.879Z,7.95
2023-03-29T16:59:23.489Z,3.85
2023-03-29T17:01:51.731Z,4.10
2023-03-29T17:04:22.555Z,5.68
2023-03-29T17:06:51.592Z,5.03
2023-03-29T17:09:20.061Z,7.45
2023-03-29T17:11:48.283Z,15.02
2023-03-29T17:14:17.013Z,11.45
2023-03-29T17:16:46.600Z,16.38
2023-03-29T17:19:14.823Z,10.27
2023-03-29T17:21:43.213Z,4.80
2023-03-29T17:24:11.391Z,9.15
2023-03-29T17:26:39.967Z,9.13
2023-03-29T17:29:08.205Z,55.28
2023-03-29T17:31:37.354Z,29.02
2023-03-29T17:34:07.741Z,29.83
2023-03-29T17:36:37.428Z,42.60
2023-03-29T17:39:06.194Z,69.95
2023-03-29T17:41:34.370Z,26.42
2023-03-29T17:44:04.469Z,31.77
2023-03-29T17:46:32.761Z,34.28
2023-03-29T17:49:03.955Z,33.78
2023-03-29T17:51:33.632Z,24.77
2023-03-29T17:54:01.820Z,25.95
2023-03-29T17:56:30.035Z,24.27
2023-03-29T17:58:58.713Z,30.30
2023-03-29T18:01:27.271Z,18.42
2023-03-29T18:03:55.604Z,26.33
2023-03-29T18:06:24.459Z,25.83
2023-03-29T18:08:55.097Z,17.00
2023-03-29T18:11:24.680Z,14.98
2023-03-29T18:13:53.912Z,18.00
2023-03-29T18:16:23.368Z,43.40
2023-03-29T18:18:51.958Z,34.65
2023-03-29T18:21:20.804Z,37.92
2023-03-29T18:23:52.860Z,21.27
2023-03-29T18:26:24.127Z,17.40
2023-03-29T18:28:52.409Z,17.38
2023-03-29T18:31:20.829Z,16.60
2023-03-29T18:33:49.025Z,17.40
2023-03-29T18:36:18.602Z,16.35
2023-03-29T18:38:46.930Z,15.57
2023-03-29T18:41:15.849Z,10.60
2023-03-29T18:43:46.764Z,15.13
2023-03-29T18:46:15.047Z,13.38
2023-03-29T18:48:43.264Z,16.40
2023-03-29T18:51:13.329Z,18.98
2023-03-29T18:53:43.599Z,15.65
2023-03-29T18:56:11.914Z,19.48
2023-03-29T18:58:40.066Z,13.02
2023-03-29T19:01:10.802Z,11.40
2023-03-29T19:03:39.201Z,25.33
2023-03-29T19:06:08.337Z,23.48
2023-03-29T19:08:39.613Z,18.05
2023-03-29T19:11:09.444Z,13.63
2023-03-29T19:13:37.716Z,17.73
2023-03-29T19:16:06.580Z,15.27
2023-03-29T19:18:36.615Z,19.48
2023-03-29T19:21:04.901Z,15.00
2023-03-29T19:23:33.075Z,11.23
2023-03-29T19:26:03.454Z,19.58
2023-03-29T19:28:32.137Z,25.15
2023-03-29T19:31:01.890Z,13.50
2023-03-29T19:33:30.422Z,24.90
2023-03-29T19:36:00.078Z,9.23
2023-03-29T19:38:28.305Z,10.63
2023-03-29T19:40:57.314Z,13.60
2023-03-29T19:43:25.519Z,11.38
2023-03-29T19:45:53.679Z,10.18
2023-03-29T19:48:23.829Z,6.93
2023-03-29T19:50:52.951Z,8.90
2023-03-29T19:53:23.161Z,12.10
2023-03-29T19:55:52.367Z,10.43
2023-03-29T19:58:20.664Z,60.45
2023-03-29T20:00:50.655Z,22.65
2023-03-29T20:03:18.899Z,15.25
2023-03-29T20:05:47.809Z,10.65
2023-03-29T20:08:16.119Z,8.98
2023-03-29T20:10:45.721Z,13.02
2023-03-29T20:13:15.780Z,8.98
2023-03-29T20:15:50.138Z,10.65
2023-03-29T20:18:21.653Z,10.20
2023-03-29T20:20:50.488Z,8.95
2023-03-29T20:23:18.909Z,9.30
2023-03-29T20:25:48.418Z,11.82
2023-03-29T20:28:17.253Z,13.20
2023-03-29T20:30:45.638Z,8.80
2023-03-29T20:33:13.864Z,14.82
2023-03-29T20:35:42.415Z,9.57
2023-03-29T20:38:11.573Z,8.82
2023-03-29T20:40:40.797Z,7.60
2023-03-29T20:43:13.280Z,13.85
2023-03-29T20:45:52.104Z,10.80
2023-03-29T20:48:23.080Z,11.68
2023-03-29T20:50:52.287Z,7.60
2023-03-29T20:53:21.349Z,16.08
2023-03-29T20:55:49.625Z,14.02
2023-03-29T20:58:19.177Z,19.27
2023-03-29T21:00:48.326Z,17.67
2023-03-29T21:03:16.884Z,19.55
2023-03-29T21:05:45.166Z,15.80
2023-03-29T21:08:17.491Z,12.80
2023-03-29T21:10:47.752Z,11.48
2023-03-29T21:13:15.946Z,16.10
2023-03-29T21:15:47.530Z,13.07
2023-03-29T21:18:16.336Z,21.48
2023-03-29T21:20:45.520Z,11.35
2023-03-29T21:23:14.787Z,11.35
2023-03-29T21:25:43.890Z,10.88
2023-03-29T21:28:13.247Z,20.15
2023-03-29T21:30:41.703Z,13.48
2023-03-29T21:33:11.350Z,12.63
2023-03-29T21:35:39.615Z,13.10
2023-03-29T21:38:07.917Z,14.95
2023-03-29T21:40:38.964Z,13.40
2023-03-29T21:43:07.393Z,9.77
2023-03-29T21:45:35.746Z,12.73
2023-03-29T21:48:03.958Z,12.82
2023-03-29T21:50:34.429Z,11.68
2023-03-29T21:53:05.735Z,16.50
2023-03-29T21:55:36.115Z,18.23
2023-03-29T21:58:04.722Z,19.90
2023-03-29T22:00:33.255Z,14.07
2023-03-29T22:03:02.606Z,9.18
2023-03-29T22:05:31.160Z,14.40
2023-03-29T22:08:01.985Z,13.60
2023-03-29T22:10:32.928Z,19.75
2023-03-29T22:13:01.702Z,17.60
2023-03-29T22:15:29.977Z,20.02
2023-03-29T22:17:59.794Z,16.48
2023-03-29T22:20:28.283Z,14.10
2023-03-29T22:22:56.667Z,16.00
2023-03-29T22:25:26.287Z,15.70
2023-03-29T22:27:54.467Z,10.93
2023-03-29T22:30:22.776Z,14.10
2023-03-29T22:32:51.156Z,13.63
2023-03-29T22:35:19.488Z,13.77
2023-03-29T22:37:47.704Z,13.07
2023-03-29T22:40:16.404Z,15.55
2023-03-29T22:42:46.037Z,14.48
2023-03-29T22:45:14.339Z,13.02
2023-03-29T22:47:42.580Z,13.77
2023-03-29T22:50:11.987Z,16.75
2023-03-29T22:52:40.369Z,14.27
2023-03-29T22:55:09.165Z,13.00
2023-03-29T22:57:37.340Z,19.73
2023-03-29T23:00:08.886Z,18.42
2023-03-29T23:02:37.804Z,9.88
2023-03-29T23:05:06.868Z,8.63
2023-03-29T23:07:36.322Z,15.73
2023-03-29T23:10:06.431Z,10.40
2023-03-29T23:12:36.188Z,11.13
2023-03-29T23:15:08.018Z,12.73
2023-03-29T23:17:37.108Z,12.35
2023-03-29T23:20:06.989Z,14.02
2023-03-29T23:22:36.349Z,17.20
2023-03-29T23:25:04.740Z,19.98
2023-03-29T23:27:33.124Z,20.25
2023-03-29T23:30:01.627Z,19.17
2023-03-29T23:32:31.266Z,20.88
2023-03-29T23:35:00.252Z,20.58
2023-03-29T23:37:28.441Z,20.75
2023-03-29T23:39:56.657Z,21.02
2023-03-29T23:42:24.881Z,16.08
2023-03-29T23:44:53.080Z,12.93
2023-03-29T23:47:21.423Z,12.95
2023-03-29T23:49:53.216Z,15.80
2023-03-29T23:52:21.533Z,16.52
2023-03-29T23:54:51.213Z,16.15
2023-03-29T23:57:19.550Z,13.20
2023-03-29T23:59:52.476Z,10.73
